Time;durP1;ratioP1;P1;durP2;ratioP2;P2;SDS_P1;SDS_P2;PMS_P1;PMS_P2;Temp;Humidity;BMP_temperature;BMP_pressure;BME280_temperature;BME280_humidity;BME280_pressure;Samples;Min_cycle;Max_cycle;Signal;HPM_P1;HPM_P2
2021/05/12 00:01:50;;;;;;;2.70;2.50;;;12.00;62.60;;;;;;5158298;27;20023;-71
2021/05/12 00:04:16;;;;;;;2.55;2.33;;;11.90;62.60;;;;;;5158039;27;20027;-71
2021/05/12 00:06:42;;;;;;;3.10;2.80;;;11.90;62.70;;;;;;5158786;27;20034;-71
2021/05/12 00:09:07;;;;;;;3.92;2.60;;;11.80;62.80;;;;;;5158503;27;20552;-71
2021/05/12 00:11:33;;;;;;;2.83;2.63;;;11.80;62.90;;;;;;5158629;27;20368;-72
2021/05/12 00:13:59;;;;;;;3.97;2.50;;;11.80;63.00;;;;;;5157858;27;20502;-71
2021/05/12 00:16:25;;;;;;;3.28;2.97;;;11.80;63.10;;;;;;5140297;27;20031;-71
2021/05/12 00:18:51;;;;;;;2.72;2.53;;;11.70;63.10;;;;;;5156887;27;20022;-71
2021/05/12 00:21:56;;;;;;;2.90;2.60;;;11.70;63.20;;;;;;5157922;27;20038;-71
2021/05/12 00:24:09;;;;;;;4.22;3.00;;;11.70;63.40;;;;;;5154731;27;20043;-71
2021/05/12 00:26:39;;;;;;;3.25;2.90;;;11.60;63.50;;;;;;5157893;27;20034;-71
2021/05/12 00:29:09;;;;;;;7.90;2.80;;;11.50;63.70;;;;;;5157773;27;20038;-71
2021/05/12 00:31:36;;;;;;;5.05;3.13;;;11.50;63.90;;;;;;5157779;27;20061;-71
2021/05/12 00:34:02;;;;;;;6.07;3.08;;;11.50;64.00;;;;;;5158056;27;20464;-71
2021/05/12 00:36:28;;;;;;;3.20;2.83;;;11.40;64.20;;;;;;5157466;27;20025;-71
2021/05/12 00:38:56;;;;;;;3.00;2.20;;;11.40;64.30;;;;;;5157573;27;20368;-71
2021/05/12 00:41:22;;;;;;;3.63;2.15;;;11.30;64.50;;;;;;5156994;27;20030;-71
2021/05/12 00:43:48;;;;;;;3.30;2.60;;;11.30;64.70;;;;;;5157556;27;20076;-71
2021/05/12 00:46:14;;;;;;;2.35;2.20;;;11.30;64.90;;;;;;5156727;27;20103;-71
2021/05/12 00:48:40;;;;;;;2.70;2.00;;;11.30;65.00;;;;;;5157433;27;20110;-72
2021/05/12 00:51:06;;;;;;;2.45;2.25;;;11.20;65.10;;;;;;5157193;27;20054;-71
2021/05/12 00:53:32;;;;;;;3.55;1.77;;;11.20;65.20;;;;;;5158242;27;20029;-71
2021/05/12 00:55:58;;;;;;;3.92;2.30;;;11.20;65.30;;;;;;5157504;27;20034;-70
2021/05/12 00:58:24;;;;;;;2.45;1.80;;;11.20;65.40;;;;;;5157232;27;20027;-71
2021/05/12 01:00:51;;;;;;;4.57;2.58;;;11.10;65.50;;;;;;5157121;27;20072;-71
2021/05/12 01:03:16;;;;;;;3.28;2.40;;;11.10;65.70;;;;;;5156924;27;20031;-71
2021/05/12 01:05:51;;;;;;;3.58;2.30;;;11.10;65.70;;;;;;5157443;27;20045;-71
2021/05/12 01:08:18;;;;;;;2.28;2.10;;;11.10;65.90;;;;;;5156806;27;20125;-70
2021/05/12 01:10:45;;;;;;;3.15;2.38;;;11.00;65.80;;;;;;5157055;27;20023;-71
2021/05/12 01:13:12;;;;;;;3.45;2.50;;;11.00;66.00;;;;;;5156752;27;20027;-71
2021/05/12 01:15:39;;;;;;;3.67;2.40;;;11.00;66.10;;;;;;5156863;27;20023;-71
2021/05/12 01:18:10;;;;;;;4.03;2.30;;;10.90;66.10;;;;;;5156914;27;20026;-71
2021/05/12 01:20:55;;;;;;;2.30;2.20;;;10.90;66.30;;;;;;5156537;27;20484;-71
2021/05/12 01:23:24;;;;;;;4.35;2.75;;;10.90;66.50;;;;;;5138220;27;20379;-71
2021/05/12 01:25:52;;;;;;;2.50;2.30;;;10.80;66.50;;;;;;5156729;27;20479;-71
2021/05/12 01:28:20;;;;;;;3.03;2.17;;;10.80;67.20;;;;;;5157005;27;20030;-71
2021/05/12 01:31:04;;;;;;;4.35;2.72;;;10.80;66.80;;;;;;5157097;27;20364;-72
2021/05/12 01:33:30;;;;;;;2.30;2.10;;;10.80;67.10;;;;;;5156900;27;20022;-71
2021/05/12 01:35:56;;;;;;;2.20;2.00;;;10.70;67.00;;;;;;5156826;27;20364;-71
2021/05/12 01:38:23;;;;;;;2.20;2.00;;;10.70;67.10;;;;;;5156499;27;20030;-71
2021/05/12 01:40:50;;;;;;;2.42;1.92;;;10.70;67.30;;;;;;5156319;27;20027;-71
2021/05/12 01:43:16;;;;;;;3.28;1.95;;;10.70;67.30;;;;;;5156709;27;20375;-71
2021/05/12 01:45:41;;;;;;;2.17;1.98;;;10.70;67.40;;;;;;5156053;27;20027;-72
2021/05/12 01:48:09;;;;;;;3.55;1.90;;;10.70;67.40;;;;;;5156589;27;20050;-71
2021/05/12 01:50:36;;;;;;;2.35;1.85;;;10.70;67.40;;;;;;5156200;27;20023;-72
2021/05/12 01:53:03;;;;;;;1.90;1.80;;;10.60;67.40;;;;;;5156768;27;20026;-71
2021/05/12 01:55:28;;;;;;;1.88;1.77;;;10.60;67.40;;;;;;5155860;27;20019;-70
2021/05/12 01:57:54;;;;;;;5.35;1.85;;;10.60;67.40;;;;;;5155789;27;20029;-71
2021/05/12 02:00:21;;;;;;;3.90;1.67;;;10.60;67.50;;;;;;5156101;27;20019;-71
2021/05/12 02:02:47;;;;;;;2.47;1.77;;;10.60;67.60;;;;;;5155834;27;20052;-71
2021/05/12 02:05:13;;;;;;;2.10;2.00;;;10.50;67.50;;;;;;5156506;27;20027;-71
2021/05/12 02:07:39;;;;;;;2.70;2.17;;;10.50;67.60;;;;;;5155930;27;20035;-71
2021/05/12 02:10:06;;;;;;;1.70;1.60;;;10.50;67.70;;;;;;5155892;27;20088;-71
2021/05/12 02:12:31;;;;;;;2.60;1.77;;;10.50;67.80;;;;;;5154570;27;20050;-71
2021/05/12 02:14:57;;;;;;;3.80;2.20;;;10.50;67.90;;;;;;5155549;27;20073;-71
2021/05/12 02:17:23;;;;;;;2.10;1.58;;;10.50;68.00;;;;;;5155716;27;20015;-71
2021/05/12 02:19:49;;;;;;;1.88;1.70;;;10.50;68.20;;;;;;5155693;27;20033;-71
2021/05/12 02:22:14;;;;;;;3.72;1.70;;;10.40;68.30;;;;;;5155546;27;20031;-72
2021/05/12 02:24:40;;;;;;;1.52;1.40;;;10.50;68.70;;;;;;5155819;27;20031;-71
2021/05/12 02:27:06;;;;;;;1.85;1.63;;;10.50;68.90;;;;;;5137010;27;20026;-72
2021/05/12 02:29:32;;;;;;;1.02;1.02;;;10.50;69.10;;;;;;5155224;27;20022;-72
2021/05/12 02:31:58;;;;;;;1.30;0.98;;;10.50;69.20;;;;;;5155220;27;20034;-70
2021/05/12 02:34:24;;;;;;;0.82;0.82;;;10.60;69.40;;;;;;5136988;27;20030;-70
2021/05/12 02:36:50;;;;;;;1.63;1.27;;;10.60;69.40;;;;;;5155156;27;20023;-71
2021/05/12 02:39:15;;;;;;;1.55;1.13;;;10.70;69.40;;;;;;5136875;27;20027;-70
2021/05/12 02:41:41;;;;;;;3.78;1.20;;;10.80;70.00;;;;;;5155266;27;20054;-71
2021/05/12 02:44:07;;;;;;;3.03;1.05;;;10.90;69.30;;;;;;5155235;27;20026;-71
2021/05/12 02:46:33;;;;;;;1.20;1.10;;;11.00;69.00;;;;;;5155384;27;20026;-70
2021/05/12 02:48:59;;;;;;;4.88;0.82;;;11.00;68.60;;;;;;5154372;27;20038;-71
2021/05/12 02:51:25;;;;;;;0.98;0.90;;;11.10;68.40;;;;;;5155392;27;20380;-70
2021/05/12 02:53:51;;;;;;;1.13;1.02;;;11.10;68.30;;;;;;5155562;27;20464;-71
2021/05/12 02:56:17;;;;;;;0.75;0.75;;;11.10;68.20;;;;;;5155302;27;20034;-71
2021/05/12 02:58:42;;;;;;;0.80;0.80;;;11.10;68.10;;;;;;5155611;27;20025;-71
2021/05/12 03:01:08;;;;;;;1.75;0.73;;;11.10;68.00;;;;;;5155245;27;20034;-70
2021/05/12 03:03:35;;;;;;;0.77;0.77;;;11.10;68.00;;;;;;5154978;27;20383;-71
2021/05/12 03:06:01;;;;;;;0.70;0.70;;;11.10;68.00;;;;;;5155388;27;20015;-70
2021/05/12 03:08:27;;;;;;;1.45;0.80;;;11.10;68.00;;;;;;5156930;27;20031;-70
2021/05/12 03:10:53;;;;;;;2.15;1.50;;;11.10;68.50;;;;;;5159362;27;20022;-70
2021/05/12 03:13:19;;;;;;;0.90;0.90;;;11.10;67.80;;;;;;5157821;27;20091;-71
2021/05/12 03:15:44;;;;;;;0.70;0.70;;;11.10;67.70;;;;;;5140601;27;20022;-74
2021/05/12 03:18:10;;;;;;;4.10;1.00;;;11.10;67.70;;;;;;5159075;27;20027;-70
2021/05/12 03:20:36;;;;;;;0.70;0.70;;;11.20;67.70;;;;;;5159682;27;20029;-71
2021/05/12 03:23:02;;;;;;;0.95;0.73;;;11.20;67.70;;;;;;5159400;27;20030;-70
2021/05/12 03:25:28;;;;;;;1.02;0.70;;;11.20;67.70;;;;;;5158779;27;20365;-70
2021/05/12 03:27:54;;;;;;;1.25;0.73;;;11.20;67.70;;;;;;5158627;27;20019;-71
2021/05/12 03:30:25;;;;;;;1.55;0.90;;;11.20;67.70;;;;;;5159471;27;20452;-73
2021/05/12 03:32:51;;;;;;;1.20;0.85;;;11.20;67.70;;;;;;5158591;27;20387;-71
2021/05/12 03:35:18;;;;;;;1.85;1.00;;;11.20;67.70;;;;;;5158875;27;20159;-71
2021/05/12 03:37:44;;;;;;;1.30;0.98;;;11.20;67.70;;;;;;5159332;27;20027;-72
2021/05/12 03:40:10;;;;;;;1.08;1.00;;;11.10;67.80;;;;;;5140148;27;20027;-71
2021/05/12 03:42:36;;;;;;;1.63;0.90;;;11.20;67.90;;;;;;5159193;27;20484;-72
2021/05/12 03:45:04;;;;;;;0.60;0.60;;;11.20;68.10;;;;;;5158565;27;20079;-72
2021/05/12 03:47:29;;;;;;;2.65;0.80;;;11.40;68.20;;;;;;5158489;27;20023;-73
2021/05/12 03:49:55;;;;;;;1.90;0.80;;;11.60;68.10;;;;;;5158904;27;20029;-72
2021/05/12 03:52:21;;;;;;;0.93;0.90;;;11.70;67.70;;;;;;5158225;27;20360;-72
2021/05/12 03:54:49;;;;;;;0.93;0.88;;;11.80;67.30;;;;;;5158452;27;20023;-72
2021/05/12 03:57:15;;;;;;;1.33;0.80;;;11.90;67.00;;;;;;5158393;27;20019;-71
2021/05/12 03:59:41;;;;;;;1.20;1.10;;;12.00;66.80;;;;;;5158413;27;20072;-72
2021/05/12 04:02:07;;;;;;;1.42;0.90;;;12.00;66.50;;;;;;5158276;27;20027;-70
2021/05/12 04:04:32;;;;;;;1.15;0.80;;;12.00;66.30;;;;;;5158505;27;20460;-71
2021/05/12 04:06:58;;;;;;;1.02;0.93;;;12.10;66.30;;;;;;5158502;27;20372;-72
2021/05/12 04:09:24;;;;;;;1.83;0.95;;;12.10;66.30;;;;;;5157853;27;20114;-71
2021/05/12 04:11:50;;;;;;;4.55;1.02;;;12.10;66.20;;;;;;5157799;27;20061;-72
2021/05/12 04:14:15;;;;;;;1.30;1.00;;;12.10;66.10;;;;;;5157959;27;20019;-71
2021/05/12 04:16:41;;;;;;;1.10;1.00;;;12.20;66.10;;;;;;5158009;27;20022;-71
2021/05/12 04:19:07;;;;;;;1.63;1.10;;;12.30;66.10;;;;;;5157081;27;20027;-71
2021/05/12 04:21:33;;;;;;;2.15;1.20;;;12.40;65.90;;;;;;5156083;27;20037;-72
2021/05/12 04:23:59;;;;;;;3.30;1.45;;;12.60;65.80;;;;;;5157815;27;20029;-72
2021/05/12 04:26:24;;;;;;;2.17;1.50;;;12.70;65.40;;;;;;5157624;27;20101;-70
2021/05/12 04:28:50;;;;;;;1.08;0.98;;;12.70;65.20;;;;;;5158195;27;20046;-70
2021/05/12 04:31:16;;;;;;;4.28;1.67;;;12.80;65.00;;;;;;5157145;27;20035;-72
2021/05/12 04:33:41;;;;;;;4.45;1.20;;;12.80;64.90;;;;;;5157292;27;20023;-71
2021/05/12 04:36:07;;;;;;;1.83;1.10;;;12.70;64.90;;;;;;5157242;27;20019;-71
2021/05/12 04:38:33;;;;;;;4.78;1.50;;;12.70;65.00;;;;;;5158049;27;20022;-71
2021/05/12 04:40:59;;;;;;;1.90;1.48;;;12.70;65.20;;;;;;5157369;27;20031;-71
2021/05/12 04:43:26;;;;;;;2.15;1.30;;;12.70;65.20;;;;;;5157995;27;20099;-71
2021/05/12 04:45:52;;;;;;;2.92;1.38;;;12.80;65.40;;;;;;5158163;27;20095;-71
2021/05/12 04:48:18;;;;;;;3.47;1.50;;;12.90;65.40;;;;;;5157394;27;20034;-71
2021/05/12 04:50:44;;;;;;;1.88;1.30;;;13.00;65.30;;;;;;5157699;27;20106;-71
2021/05/12 04:53:10;;;;;;;3.08;1.38;;;13.10;65.90;;;;;;5157588;27;20054;-71
2021/05/12 04:55:36;;;;;;;1.58;1.20;;;13.30;65.00;;;;;;5157617;27;20424;-71
2021/05/12 04:58:01;;;;;;;2.22;1.50;;;13.40;64.80;;;;;;5157398;27;20027;-70
2021/05/12 05:00:27;;;;;;;5.25;1.70;;;13.50;64.60;;;;;;5156895;27;20102;-71
2021/05/12 05:02:54;;;;;;;2.63;1.77;;;13.50;64.40;;;;;;5157040;27;20031;-71
2021/05/12 05:05:21;;;;;;;4.57;1.67;;;13.60;64.20;;;;;;5156777;27;20472;-71
2021/05/12 05:07:47;;;;;;;9.02;1.80;;;13.70;64.00;;;;;;5157076;27;20068;-71
2021/05/12 05:10:14;;;;;;;7.97;2.10;;;13.80;63.90;;;;;;5156653;27;20026;-71
2021/05/12 05:12:40;;;;;;;3.20;1.65;;;13.90;63.60;;;;;;5156860;27;20030;-70
2021/05/12 05:15:07;;;;;;;2.00;1.80;;;14.00;63.40;;;;;;5156540;27;20535;-70
2021/05/12 05:17:33;;;;;;;4.00;1.80;;;14.10;63.20;;;;;;5156441;27;20532;-72
2021/05/12 05:20:00;;;;;;;4.25;1.77;;;14.20;63.00;;;;;;5156610;27;20031;-72
2021/05/12 05:22:28;;;;;;;2.20;1.73;;;14.20;62.90;;;;;;5156105;27;20070;-73
2021/05/12 05:24:55;;;;;;;4.05;1.75;;;14.30;62.70;;;;;;5156422;27;20046;-71
2021/05/12 05:27:21;;;;;;;6.53;1.40;;;14.50;62.50;;;;;;5156419;27;20050;-71
2021/05/12 05:29:46;;;;;;;1.92;1.23;;;14.60;62.10;;;;;;5156607;27;20363;-71
2021/05/12 05:32:12;;;;;;;54.20;4.43;;;14.50;61.60;;;;;;5155643;27;20114;-71
2021/05/12 05:34:39;;;;;;;25.88;2.53;;;14.50;61.30;;;;;;5156153;27;20101;-71
2021/05/12 05:37:05;;;;;;;19.85;3.30;;;14.50;61.00;;;;;;5156237;27;20023;-71
2021/05/12 05:39:37;;;;;;;21.73;2.20;;;14.50;60.60;;;;;;5156865;27;20034;-70
2021/05/12 05:42:08;;;;;;;43.97;4.18;;;14.50;60.50;;;;;;5155968;27;20101;-73
2021/05/12 05:44:34;;;;;;;16.80;2.40;;;14.50;60.30;;;;;;5156613;27;20093;-71
2021/05/12 05:47:01;;;;;;;15.13;2.03;;;14.50;60.30;;;;;;5156361;27;20156;-71
2021/05/12 05:49:27;;;;;;;23.52;2.78;;;14.60;60.20;;;;;;5156041;27;20026;-71
2021/05/12 05:51:52;;;;;;;8.48;1.70;;;14.70;60.00;;;;;;5156126;27;20050;-71
2021/05/12 05:54:22;;;;;;;26.02;2.20;;;14.80;59.80;;;;;;5155844;27;20027;-70
2021/05/12 05:56:48;;;;;;;9.77;2.15;;;14.90;59.50;;;;;;5156054;27;20023;-73
2021/05/12 05:59:14;;;;;;;14.98;2.65;;;15.00;59.40;;;;;;5155837;27;20054;-71
2021/05/12 06:01:40;;;;;;;20.27;2.60;;;15.10;59.10;;;;;;5155817;27;20063;-71
2021/05/12 06:04:07;;;;;;;12.13;2.10;;;15.20;58.90;;;;;;5156143;27;20430;-71
2021/05/12 06:06:33;;;;;;;13.45;2.33;;;15.30;58.70;;;;;;5155751;27;20102;-71
2021/05/12 06:08:58;;;;;;;8.05;1.42;;;15.50;58.70;;;;;;5156457;27;20058;-71
2021/05/12 06:11:24;;;;;;;21.77;2.97;;;15.70;58.10;;;;;;5156288;27;20062;-70
2021/05/12 06:13:50;;;;;;;36.50;4.20;;;15.90;57.70;;;;;;5155670;27;20079;-71
2021/05/12 06:16:19;;;;;;;3.15;1.23;;;16.10;57.30;;;;;;5155732;27;20461;-71
2021/05/12 06:18:45;;;;;;;35.47;4.03;;;16.20;56.70;;;;;;5156081;27;20041;-71
2021/05/12 06:21:12;;;;;;;7.68;1.70;;;16.30;56.60;;;;;;5155355;27;20405;-71
2021/05/12 06:23:39;;;;;;;11.15;1.67;;;16.40;56.40;;;;;;5155645;27;20084;-70
2021/05/12 06:26:13;;;;;;;13.43;1.90;;;16.60;55.90;;;;;;5155531;27;20030;-71
2021/05/12 06:28:39;;;;;;;10.38;1.85;;;16.60;55.70;;;;;;5156138;27;20496;-71
2021/05/12 06:31:05;;;;;;;8.35;1.27;;;16.70;55.60;;;;;;5156212;27;20074;-72
2021/05/12 06:33:31;;;;;;;13.25;1.92;;;16.80;55.30;;;;;;5155172;27;20023;-71
2021/05/12 06:35:57;;;;;;;151.13;14.63;;;16.70;54.50;;;;;;5155720;27;20026;-72
2021/05/12 06:38:23;;;;;;;9.52;1.70;;;16.60;54.40;;;;;;5136929;27;20022;-71
2021/05/12 06:40:49;;;;;;;117.38;9.45;;;16.40;54.40;;;;;;5136595;27;20030;-73
2021/05/12 06:43:15;;;;;;;26.27;2.17;;;16.20;54.50;;;;;;5136169;27;20051;-72
2021/05/12 06:45:40;;;;;;;15.50;1.25;;;16.00;54.60;;;;;;5155315;27;20029;-72
2021/05/12 06:48:07;;;;;;;15.48;2.00;;;15.80;55.00;;;;;;5154981;27;20029;-72
2021/05/12 06:50:33;;;;;;;12.55;1.85;;;15.70;55.30;;;;;;5155500;27;20034;-71
2021/05/12 06:52:59;;;;;;;21.33;3.38;;;15.60;55.40;;;;;;5155135;27;20031;-72
2021/05/12 06:55:26;;;;;;;5.93;1.60;;;15.40;55.60;;;;;;5155431;27;20027;-71
2021/05/12 06:57:52;;;;;;;3.25;1.08;;;15.40;55.90;;;;;;5154852;27;20031;-71
2021/05/12 07:00:19;;;;;;;1.80;0.80;;;15.50;56.90;;;;;;5154856;27;20042;-72
2021/05/12 07:02:44;;;;;;;1.83;0.85;;;15.60;56.30;;;;;;5155566;27;20031;-72
2021/05/12 07:05:15;;;;;;;1.33;0.80;;;15.70;56.00;;;;;;5154630;27;20376;-72
2021/05/12 07:07:44;;;;;;;6.53;1.60;;;15.80;55.90;;;;;;5155751;27;20019;-72
2021/05/12 07:10:13;;;;;;;10.57;1.88;;;15.70;55.50;;;;;;5154923;27;20421;-71
2021/05/12 07:12:38;;;;;;;6.80;1.45;;;15.60;55.70;;;;;;5153574;27;20026;-71
2021/05/12 07:15:06;;;;;;;45.00;4.60;;;15.60;56.00;;;;;;5154947;27;20027;-71
2021/05/12 07:17:32;;;;;;;107.97;9.00;;;15.70;56.10;;;;;;5154983;27;20374;-71
2021/05/12 07:19:58;;;;;;;11.30;2.00;;;15.90;55.90;;;;;;5154662;27;20023;-71
2021/05/12 07:22:24;;;;;;;17.83;2.13;;;16.00;55.80;;;;;;5154878;27;20027;-71
2021/05/12 07:24:50;;;;;;;8.88;2.17;;;16.10;55.50;;;;;;5154978;27;20039;-71
2021/05/12 07:27:17;;;;;;;6.03;2.45;;;16.10;55.40;;;;;;5154883;27;20031;-71
2021/05/12 07:29:43;;;;;;;5.68;2.20;;;16.10;55.40;;;;;;5154988;27;20414;-72
2021/05/12 07:32:09;;;;;;;6.15;2.00;;;16.10;55.50;;;;;;5154803;27;20095;-72
2021/05/12 07:34:35;;;;;;;6.05;1.80;;;16.10;55.50;;;;;;5155122;27;20491;-72
2021/05/12 07:37:00;;;;;;;32.33;4.05;;;16.00;55.50;;;;;;5154688;27;20094;-70
2021/05/12 07:39:29;;;;;;;21.15;3.72;;;15.90;55.60;;;;;;5154455;27;20349;-71
2021/05/12 07:42:02;;;;;;;14.80;2.50;;;15.90;55.60;;;;;;5154359;27;20133;-72
2021/05/12 07:44:28;;;;;;;42.35;5.72;;;16.00;55.40;;;;;;5154938;27;20079;-71
2021/05/12 07:46:54;;;;;;;13.68;2.35;;;16.10;55.30;;;;;;5154769;27;20406;-71
2021/05/12 07:49:19;;;;;;;8.80;2.35;;;16.30;55.30;;;;;;5155185;27;20022;-71
2021/05/12 07:51:45;;;;;;;3.72;2.42;;;16.40;55.10;;;;;;5155061;27;20053;-71
2021/05/12 07:54:11;;;;;;;19.95;4.10;;;16.60;55.10;;;;;;5155255;27;20109;-71
2021/05/12 07:56:37;;;;;;;32.03;3.35;;;16.70;55.00;;;;;;5158913;27;20152;-71
2021/05/12 07:59:03;;;;;;;12.85;3.17;;;16.70;54.70;;;;;;5158569;27;20034;-71
2021/05/12 08:01:35;;;;;;;6.20;3.03;;;16.70;54.60;;;;;;5158360;27;20041;-72
2021/05/12 08:04:02;;;;;;;10.88;2.90;;;16.70;54.70;;;;;;5158569;27;20027;-72
2021/05/12 08:06:28;;;;;;;13.30;2.50;;;16.80;54.80;;;;;;5158157;27;20026;-71
2021/05/12 08:08:53;;;;;;;14.77;3.33;;;16.90;54.60;;;;;;5158181;27;20029;-71
2021/05/12 08:11:21;;;;;;;17.27;3.75;;;17.00;54.30;;;;;;5158227;27;20435;-72
2021/05/12 08:13:47;;;;;;;8.95;2.65;;;17.30;53.80;;;;;;5158261;27;20316;-71
2021/05/12 08:16:13;;;;;;;12.75;2.92;;;17.40;53.20;;;;;;5156578;27;20106;-73
2021/05/12 08:18:39;;;;;;;14.20;3.33;;;17.50;53.00;;;;;;5157849;27;20110;-71
2021/05/12 08:21:05;;;;;;;8.05;2.55;;;17.60;52.80;;;;;;5157589;27;20023;-71
2021/05/12 08:23:31;;;;;;;10.13;3.55;;;17.80;52.50;;;;;;5139345;27;20038;-71
2021/05/12 08:25:57;;;;;;;12.70;2.60;;;17.90;52.50;;;;;;5157575;27;20468;-70
2021/05/12 08:28:23;;;;;;;11.40;3.40;;;17.90;51.70;;;;;;5157523;27;20023;-71
2021/05/12 08:30:49;;;;;;;16.35;3.58;;;18.00;51.90;;;;;;5158059;27;20483;-72
2021/05/12 08:33:16;;;;;;;8.48;3.00;;;18.30;51.50;;;;;;5158294;27;20034;-72
2021/05/12 08:35:44;;;;;;;5.72;2.78;;;18.80;50.70;;;;;;5157295;27;20030;-70
2021/05/12 08:38:16;;;;;;;5.22;2.85;;;19.30;49.60;;;;;;5157568;27;20054;-72
2021/05/12 08:40:42;;;;;;;41.63;5.93;;;19.70;48.90;;;;;;5158093;27;20023;-71
2021/05/12 08:43:08;;;;;;;13.80;3.92;;;20.00;48.40;;;;;;5157970;27;20062;-71
2021/05/12 08:45:36;;;;;;;14.50;2.60;;;20.30;48.00;;;;;;5157281;27;20026;-71
2021/05/12 08:48:05;;;;;;;6.40;2.45;;;20.60;47.30;;;;;;5157327;27;20026;-72
2021/05/12 08:50:32;;;;;;;45.13;3.78;;;20.80;46.50;;;;;;5157381;27;20033;-71
2021/05/12 08:52:59;;;;;;;5.47;1.70;;;21.10;45.60;;;;;;5157567;27;20027;-72
2021/05/12 08:55:25;;;;;;;2.22;1.50;;;21.40;44.90;;;;;;5157209;27;20375;-71
2021/05/12 08:57:51;;;;;;;1.58;1.48;;;21.60;44.50;;;;;;5155934;27;20413;-71
2021/05/12 09:00:17;;;;;;;7.22;1.67;;;21.90;43.50;;;;;;5157284;27;20079;-71
2021/05/12 09:02:43;;;;;;;7.20;2.00;;;22.20;42.80;;;;;;5157197;27;20026;-72
2021/05/12 09:05:10;;;;;;;54.70;5.13;;;22.40;42.50;;;;;;5138514;27;20388;-71
2021/05/12 09:07:36;;;;;;;8.43;2.00;;;22.90;42.30;;;;;;5156804;27;20067;-71
2021/05/12 09:10:03;;;;;;;28.90;3.15;;;23.00;41.80;;;;;;5157049;27;20023;-71
2021/05/12 09:12:48;;;;;;;43.35;4.15;;;23.00;42.00;;;;;;5156947;27;20030;-71
2021/05/12 09:15:18;;;;;;;54.85;5.43;;;23.10;42.00;;;;;;5157322;27;20023;-71
2021/05/12 09:17:46;;;;;;;8.40;2.72;;;23.40;42.90;;;;;;5157273;27;20114;-72
2021/05/12 09:20:24;;;;;;;9.25;2.00;;;23.70;42.30;;;;;;5156677;27;20106;-71
2021/05/12 09:22:59;;;;;;;39.60;3.35;;;24.20;41.50;;;;;;5156612;27;20180;-71
2021/05/12 09:25:26;;;;;;;9.80;2.13;;;23.90;40.80;;;;;;5138182;27;20042;-71
2021/05/12 09:27:52;;;;;;;9.40;2.08;;;23.30;41.30;;;;;;5156342;27;20113;-71
2021/05/12 09:30:25;;;;;;;6.18;1.83;;;22.60;42.00;;;;;;5156536;27;20031;-71
2021/05/12 09:32:51;;;;;;;5.18;2.72;;;22.60;42.90;;;;;;5156005;27;20396;-71
2021/05/12 09:35:22;;;;;;;8.77;1.65;;;23.60;42.90;;;;;;5156696;27;20033;-71
2021/05/12 09:37:49;;;;;;;7.40;2.42;;;24.70;41.40;;;;;;5156077;27;20023;-71
2021/05/12 09:40:20;;;;;;;5.78;1.70;;;25.20;40.30;;;;;;5137768;27;20290;-71
2021/05/12 09:42:59;;;;;;;8.20;1.50;;;26.00;39.60;;;;;;5156558;27;20468;-71
2021/05/12 09:45:26;;;;;;;5.90;1.95;;;26.90;38.50;;;;;;5156276;27;20019;-71
2021/05/12 09:47:58;;;;;;;1.38;1.10;;;27.70;37.90;;;;;;5156276;27;20048;-71
2021/05/12 09:50:25;;;;;;;17.15;2.10;;;28.60;36.60;;;;;;5155845;27;20030;-71
2021/05/12 09:52:59;;;;;;;0.98;0.98;;;29.10;35.80;;;;;;5155778;27;20031;-71
2021/05/12 09:55:39;;;;;;;5.65;1.45;;;29.60;34.90;;;;;;5156587;27;20053;-71
2021/05/12 09:58:11;;;;;;;9.40;1.80;;;29.70;34.60;;;;;;5155917;27;20027;-71
2021/05/12 10:00:42;;;;;;;10.45;1.65;;;30.10;34.30;;;;;;5156113;27;20423;-71
2021/05/12 10:03:10;;;;;;;3.15;1.15;;;30.40;34.00;;;;;;5155479;27;20026;-72
2021/05/12 10:05:56;;;;;;;6.50;1.60;;;30.70;33.80;;;;;;5155880;27;20027;-72
2021/05/12 10:08:35;;;;;;;7.68;1.45;;;31.40;33.40;;;;;;5155677;27;20034;-72
2021/05/12 10:11:06;;;;;;;17.40;1.92;;;32.00;32.90;;;;;;5155570;27;20472;-71
2021/05/12 10:13:34;;;;;;;12.57;2.17;;;32.40;32.30;;;;;;5155657;27;20371;-72
2021/05/12 10:16:01;;;;;;;3.35;1.30;;;32.70;31.40;;;;;;5155547;27;20030;-70
2021/05/12 10:18:26;;;;;;;6.95;1.50;;;32.40;31.00;;;;;;5154791;27;20033;-71
2021/05/12 10:20:57;;;;;;;12.70;2.03;;;31.90;31.00;;;;;;5155460;27;20019;-72
2021/05/12 10:23:23;;;;;;;4.65;1.52;;;31.40;31.30;;;;;;5156019;27;20031;-73
2021/05/12 10:25:50;;;;;;;8.45;1.75;;;31.60;31.70;;;;;;5156046;27;20428;-72
2021/05/12 10:28:16;;;;;;;24.48;2.83;;;31.90;31.50;;;;;;5155573;27;20031;-73
2021/05/12 10:30:42;;;;;;;24.33;3.05;;;32.40;31.60;;;;;;5155543;27;20409;-72
2021/05/12 10:33:11;;;;;;;12.68;2.63;;;33.00;31.30;;;;;;5136947;27;20027;-73
2021/05/12 10:35:39;;;;;;;18.02;2.03;;;33.20;30.90;;;;;;5155156;27;20022;-72
2021/05/12 10:38:06;;;;;;;9.63;1.92;;;33.30;30.60;;;;;;5155574;27;20019;-72
2021/05/12 10:40:41;;;;;;;22.05;2.63;;;33.30;30.60;;;;;;5155478;27;20026;-71
2021/05/12 10:43:21;;;;;;;5.50;1.70;;;33.50;30.30;;;;;;5155476;27;20476;-71
2021/05/12 10:48:32;;;;;;;20.75;2.70;;;33.60;30.20;;;;;;5155545;27;20399;-72
2021/05/12 10:51:00;;;;;;;13.02;2.30;;;32.50;30.00;;;;;;5155117;27;20023;-72
2021/05/12 10:53:31;;;;;;;6.40;1.65;;;31.90;31.00;;;;;;5155179;27;20041;-71
2021/05/12 10:55:57;;;;;;;7.93;1.75;;;32.40;31.20;;;;;;5155709;27;20034;-72
2021/05/12 10:58:27;;;;;;;7.35;2.10;;;33.00;31.00;;;;;;5155208;27;20015;-71
2021/05/12 11:01:02;;;;;;;12.70;2.83;;;33.50;30.60;;;;;;5155594;27;20031;-72
2021/05/12 11:03:52;;;;;;;7.13;1.73;;;34.00;30.50;;;;;;5154962;27;20365;-73
2021/05/12 11:06:24;;;;;;;5.00;1.70;;;34.20;30.00;;;;;;5155440;27;20031;-71
2021/05/12 11:09:18;;;;;;;15.30;2.42;;;34.00;29.80;;;;;;5155455;27;20477;-71
2021/05/12 11:11:46;;;;;;;;;;;33.50;29.60;;;;;;5155702;27;20022;-71
2021/05/12 11:14:22;;;;;;;12.27;2.08;;;33.00;30.40;;;;;;5155150;27;19925;-72
2021/05/12 11:17:01;;;;;;;7.22;1.83;;;33.20;30.20;;;;;;5136290;27;20075;-71
2021/05/12 11:19:43;;;;;;;9.50;2.17;;;33.50;30.00;;;;;;5154574;27;20468;-72
2021/05/12 11:25:16;;;;;;;1.80;1.67;;;34.20;29.80;;;;;;5155299;27;20026;-72
2021/05/12 11:33:23;;;;;;;7.25;2.03;;;35.60;29.50;;;;;;5159075;27;20041;-72
2021/05/12 11:35:51;;;;;;;32.63;4.13;;;36.00;29.30;;;;;;5159112;27;20026;-71
2021/05/12 11:38:17;;;;;;;12.40;3.15;;;36.10;29.00;;;;;;5139797;27;20031;-73
2021/05/12 11:41:17;;;;;;;26.30;4.18;;;36.20;28.80;;;;;;5158715;27;20094;-73
2021/05/12 11:44:00;;;;;;;31.10;3.80;;;36.40;28.60;;;;;;5157856;27;20039;-72
2021/05/12 11:46:27;;;;;;;25.40;3.50;;;36.60;28.50;;;;;;5158287;27;20030;-72
2021/05/12 11:48:57;;;;;;;3.17;2.28;;;37.00;28.40;;;;;;5158231;27;20106;-72
2021/05/12 11:51:37;;;;;;;4.18;2.10;;;36.70;28.20;;;;;;5158967;27;20485;-72
2021/05/12 11:54:14;;;;;;;15.43;3.10;;;36.40;28.20;;;;;;5158739;27;20102;-72
2021/05/12 11:56:51;;;;;;;10.43;2.25;;;35.60;28.20;;;;;;5158702;27;20032;-72
2021/05/12 11:59:19;;;;;;;14.15;2.55;;;34.60;28.60;;;;;;5158749;27;20034;-72
2021/05/12 12:01:48;;;;;;;5.88;2.10;;;34.70;28.60;;;;;;5158626;27;20525;-71
2021/05/12 12:06:52;;;;;;;10.07;2.67;;;34.60;28.40;;;;;;5158277;27;20034;-71
2021/05/12 12:09:19;;;;;;;4.97;2.10;;;34.30;28.60;;;;;;5158372;27;20019;-71
2021/05/12 12:11:45;;;;;;;7.50;2.05;;;34.10;28.90;;;;;;5157959;27;20452;-73
2021/05/12 12:14:12;;;;;;;3.38;1.90;;;34.40;28.80;;;;;;5158067;27;20018;-71
2021/05/12 12:16:41;;;;;;;10.60;2.38;;;35.00;28.60;;;;;;5158099;27;20026;-77
2021/05/12 12:19:09;;;;;;;9.35;2.50;;;35.40;28.20;;;;;;5158355;27;20046;-79
2021/05/12 12:21:36;;;;;;;6.85;2.42;;;34.90;28.10;;;;;;5158395;27;20034;-76
2021/05/12 12:24:24;;;;;;;26.75;3.38;;;35.00;28.40;;;;;;5139410;27;20031;-72
2021/05/12 12:26:55;;;;;;;3.40;1.70;;;34.30;28.10;;;;;;5158504;27;20330;-72
2021/05/12 12:29:23;;;;;;;11.50;2.55;;;33.60;28.50;;;;;;5157711;27;20025;-73
2021/05/12 12:31:51;;;;;;;7.50;2.35;;;33.10;28.30;;;;;;5139136;27;20035;-72
2021/05/12 12:34:28;;;;;;;12.00;2.90;;;32.10;28.70;;;;;;5138842;27;20027;-74
2021/05/12 12:37:14;;;;;;;25.20;3.60;;;30.90;29.20;;;;;;5157623;27;20102;-72
2021/05/12 12:42:26;;;;;;;8.07;2.50;;;28.10;30.20;;;;;;5156149;27;20051;-72
2021/05/12 12:44:52;;;;;;;9.18;3.00;;;27.20;31.00;;;;;;5157357;27;20030;-72
2021/05/12 12:47:20;;;;;;;4.63;2.50;;;26.40;31.90;;;;;;5157443;27;20023;-72
2021/05/12 12:49:53;;;;;;;4.22;2.72;;;25.80;32.80;;;;;;5157792;27;20018;-72
2021/05/12 12:52:45;;;;;;;7.85;2.63;;;25.70;33.70;;;;;;5156349;27;20031;-72
2021/05/12 12:55:14;;;;;;;4.85;2.33;;;26.60;33.80;;;;;;5154168;27;20038;-73
2021/05/12 12:57:56;;;;;;;2.50;1.95;;;27.70;33.30;;;;;;5157190;27;20543;-72
2021/05/12 13:00:32;;;;;;;5.70;2.05;;;27.90;32.80;;;;;;5157049;27;20018;-72
2021/05/12 13:03:07;;;;;;;2.63;1.95;;;27.30;31.90;;;;;;5155972;27;20467;-72
2021/05/12 13:05:49;;;;;;;4.07;1.95;;;26.60;32.20;;;;;;5156926;27;20034;-72